sensor_id;sensor_type;location;lat;lon;timestamp;P1;durP1;ratioP1;P2;durP2;ratioP2
51298;SDS011;37382;45.192;9.790;2023-05-02T04:07:57;11.15;;;8.93;;
51298;SDS011;37382;45.192;9.790;2023-05-02T04:10:25;12.75;;;9.10;;
51298;SDS011;37382;45.192;9.790;2023-05-02T04:12:56;9.95;;;9.00;;
51298;SDS011;37382;45.192;9.790;2023-05-02T04:15:25;15.63;;;9.05;;
51298;SDS011;37382;45.192;9.790;2023-05-02T04:17:54;10.65;;;9.13;;
51298;SDS011;37382;45.192;9.790;2023-05-02T04:20:23;10.10;;;9.13;;
51298;SDS011;37382;45.192;9.790;2023-05-02T04:22:53;12.23;;;8.88;;
51298;SDS011;37382;45.192;9.790;2023-05-02T04:25:21;9.82;;;8.82;;
51298;SDS011;37382;45.192;9.790;2023-05-02T04:27:50;12.68;;;7.50;;
51298;SDS011;37382;45.192;9.790;2023-05-02T04:30:21;9.60;;;6.93;;
51298;SDS011;37382;45.192;9.790;2023-05-02T04:33:01;8.35;;;7.15;;
51298;SDS011;37382;45.192;9.790;2023-05-02T04:35:32;7.28;;;6.57;;
51298;SDS011;37382;45.192;9.790;2023-05-02T04:38:01;6.97;;;6.28;;
51298;SDS011;37382;45.192;9.790;2023-05-02T04:40:30;7.55;;;6.35;;
51298;SDS011;37382;45.192;9.790;2023-05-02T04:43:02;6.40;;;5.80;;
51298;SDS011;37382;45.192;9.790;2023-05-02T04:45:41;7.38;;;6.20;;
51298;SDS011;37382;45.192;9.790;2023-05-02T04:48:16;10.23;;;6.38;;
51298;SDS011;37382;45.192;9.790;2023-05-02T04:50:44;8.52;;;6.22;;
51298;SDS011;37382;45.192;9.790;2023-05-02T04:53:12;9.63;;;6.05;;
51298;SDS011;37382;45.192;9.790;2023-05-02T04:55:39;6.68;;;5.60;;
51298;SDS011;37382;45.192;9.790;2023-05-02T04:58:09;5.90;;;5.20;;
51298;SDS011;37382;45.192;9.790;2023-05-02T05:00:38;5.38;;;4.63;;
51298;SDS011;37382;45.192;9.790;2023-05-02T05:03:05;5.32;;;4.60;;
51298;SDS011;37382;45.192;9.790;2023-05-02T05:05:34;5.13;;;4.63;;
51298;SDS011;37382;45.192;9.790;2023-05-02T05:08:03;4.82;;;4.38;;
51298;SDS011;37382;45.192;9.790;2023-05-02T05:10:33;4.20;;;3.80;;
51298;SDS011;37382;45.192;9.790;2023-05-02T05:13:04;4.38;;;3.97;;
51298;SDS011;37382;45.192;9.790;2023-05-02T05:15:33;4.28;;;3.88;;
51298;SDS011;37382;45.192;9.790;2023-05-02T05:18:01;5.55;;;4.45;;
51298;SDS011;37382;45.192;9.790;2023-05-02T05:20:29;5.13;;;3.88;;
51298;SDS011;37382;45.192;9.790;2023-05-02T05:23:00;12.27;;;4.55;;
51298;SDS011;37382;45.192;9.790;2023-05-02T05:25:28;4.88;;;4.22;;
51298;SDS011;37382;45.192;9.790;2023-05-02T05:27:58;4.28;;;3.85;;
51298;SDS011;37382;45.192;9.790;2023-05-02T05:30:26;4.45;;;3.40;;
51298;SDS011;37382;45.192;9.790;2023-05-02T05:32:54;7.03;;;3.78;;
51298;SDS011;37382;45.192;9.790;2023-05-02T05:35:23;6.93;;;4.57;;
51298;SDS011;37382;45.192;9.790;2023-05-02T05:37:51;5.63;;;3.75;;
51298;SDS011;37382;45.192;9.790;2023-05-02T05:40:20;5.43;;;4.43;;
51298;SDS011;37382;45.192;9.790;2023-05-02T05:42:53;4.95;;;3.90;;
51298;SDS011;37382;45.192;9.790;2023-05-02T05:45:25;6.38;;;4.13;;
51298;SDS011;37382;45.192;9.790;2023-05-02T05:47:53;5.95;;;3.72;;
51298;SDS011;37382;45.192;9.790;2023-05-02T05:50:24;4.97;;;4.25;;
51298;SDS011;37382;45.192;9.790;2023-05-02T05:52:52;4.75;;;4.18;;
51298;SDS011;37382;45.192;9.790;2023-05-02T05:55:20;4.22;;;3.83;;
51298;SDS011;37382;45.192;9.790;2023-05-02T05:57:48;6.22;;;3.58;;
51298;SDS011;37382;45.192;9.790;2023-05-02T06:00:16;4.50;;;4.10;;
51298;SDS011;37382;45.192;9.790;2023-05-02T06:02:48;4.07;;;3.35;;
51298;SDS011;37382;45.192;9.790;2023-05-02T06:05:34;3.65;;;3.20;;
51298;SDS011;37382;45.192;9.790;2023-05-02T06:08:01;3.35;;;3.00;;
51298;SDS011;37382;45.192;9.790;2023-05-02T06:10:29;4.40;;;4.00;;
51298;SDS011;37382;45.192;9.790;2023-05-02T06:12:58;3.88;;;3.38;;
51298;SDS011;37382;45.192;9.790;2023-05-02T06:15:32;3.38;;;2.75;;
51298;SDS011;37382;45.192;9.790;2023-05-02T06:18:01;3.55;;;2.55;;
51298;SDS011;37382;45.192;9.790;2023-05-02T06:20:29;3.67;;;3.00;;
51298;SDS011;37382;45.192;9.790;2023-05-02T06:22:58;3.80;;;2.78;;
51298;SDS011;37382;45.192;9.790;2023-05-02T06:25:25;2.50;;;2.30;;
51298;SDS011;37382;45.192;9.790;2023-05-02T06:27:53;4.38;;;2.70;;
51298;SDS011;37382;45.192;9.790;2023-05-02T06:30:21;4.00;;;2.97;;
51298;SDS011;37382;45.192;9.790;2023-05-02T06:32:48;3.92;;;2.72;;
51298;SDS011;37382;45.192;9.790;2023-05-02T06:35:16;3.40;;;2.97;;
51298;SDS011;37382;45.192;9.790;2023-05-02T06:37:44;4.32;;;2.47;;
51298;SDS011;37382;45.192;9.790;2023-05-02T06:40:12;3.33;;;3.03;;
51298;SDS011;37382;45.192;9.790;2023-05-02T06:42:40;3.40;;;2.70;;
51298;SDS011;37382;45.192;9.790;2023-05-02T06:45:08;5.45;;;3.05;;
51298;SDS011;37382;45.192;9.790;2023-05-02T06:47:35;3.45;;;3.05;;
51298;SDS011;37382;45.192;9.790;2023-05-02T06:50:03;3.47;;;2.95;;
51298;SDS011;37382;45.192;9.790;2023-05-02T06:52:32;5.18;;;3.03;;
51298;SDS011;37382;45.192;9.790;2023-05-02T06:54:59;3.67;;;2.90;;
51298;SDS011;37382;45.192;9.790;2023-05-02T06:57:27;3.33;;;2.78;;
51298;SDS011;37382;45.192;9.790;2023-05-02T06:59:55;4.70;;;2.90;;
51298;SDS011;37382;45.192;9.790;2023-05-02T07:02:23;2.70;;;2.50;;
51298;SDS011;37382;45.192;9.790;2023-05-02T07:04:50;7.93;;;3.15;;
51298;SDS011;37382;45.192;9.790;2023-05-02T07:07:18;3.30;;;3.00;;
51298;SDS011;37382;45.192;9.790;2023-05-02T07:09:47;2.80;;;2.60;;
51298;SDS011;37382;45.192;9.790;2023-05-02T07:12:15;4.32;;;3.08;;
51298;SDS011;37382;45.192;9.790;2023-05-02T07:14:42;3.47;;;3.17;;
51298;SDS011;37382;45.192;9.790;2023-05-02T07:17:13;3.72;;;3.28;;
51298;SDS011;37382;45.192;9.790;2023-05-02T07:19:41;5.07;;;3.03;;
51298;SDS011;37382;45.192;9.790;2023-05-02T07:22:11;3.55;;;3.25;;
51298;SDS011;37382;45.192;9.790;2023-05-02T07:24:39;4.40;;;4.00;;
51298;SDS011;37382;45.192;9.790;2023-05-02T07:27:08;4.10;;;3.70;;
51298;SDS011;37382;45.192;9.790;2023-05-02T07:29:36;4.45;;;4.05;;
51298;SDS011;37382;45.192;9.790;2023-05-02T07:32:04;4.63;;;3.38;;
51298;SDS011;37382;45.192;9.790;2023-05-02T07:34:32;4.20;;;3.80;;
51298;SDS011;37382;45.192;9.790;2023-05-02T07:37:00;4.60;;;4.20;;
51298;SDS011;37382;45.192;9.790;2023-05-02T07:39:28;4.25;;;3.85;;
51298;SDS011;37382;45.192;9.790;2023-05-02T07:41:56;4.78;;;4.30;;
51298;SDS011;37382;45.192;9.790;2023-05-02T07:44:23;5.20;;;4.70;;
51298;SDS011;37382;45.192;9.790;2023-05-02T07:46:52;6.53;;;4.60;;
51298;SDS011;37382;45.192;9.790;2023-05-02T07:49:19;6.78;;;4.40;;
51298;SDS011;37382;45.192;9.790;2023-05-02T07:51:47;4.80;;;4.40;;
51298;SDS011;37382;45.192;9.790;2023-05-02T07:54:15;5.32;;;4.63;;
51298;SDS011;37382;45.192;9.790;2023-05-02T07:56:42;7.20;;;4.85;;
51298;SDS011;37382;45.192;9.790;2023-05-02T07:59:10;5.93;;;5.30;;
51298;SDS011;37382;45.192;9.790;2023-05-02T08:01:40;6.72;;;5.65;;
51298;SDS011;37382;45.192;9.790;2023-05-02T08:04:08;6.22;;;5.63;;
51298;SDS011;37382;45.192;9.790;2023-05-02T08:06:39;7.20;;;5.63;;
51298;SDS011;37382;45.192;9.790;2023-05-02T08:09:08;6.00;;;5.40;;
51298;SDS011;37382;45.192;9.790;2023-05-02T08:11:35;6.25;;;5.65;;
51298;SDS011;37382;45.192;9.790;2023-05-02T08:14:03;7.25;;;5.93;;
51298;SDS011;37382;45.192;9.790;2023-05-02T08:16:31;9.23;;;5.50;;
51298;SDS011;37382;45.192;9.790;2023-05-02T08:18:59;9.05;;;5.45;;
51298;SDS011;37382;45.192;9.790;2023-05-02T08:21:26;6.70;;;5.60;;
51298;SDS011;37382;45.192;9.790;2023-05-02T08:23:56;6.68;;;6.00;;
51298;SDS011;37382;45.192;9.790;2023-05-02T08:26:24;6.53;;;5.82;;
51298;SDS011;37382;45.192;9.790;2023-05-02T08:28:53;6.05;;;5.45;;
51298;SDS011;37382;45.192;9.790;2023-05-02T08:31:21;6.50;;;5.90;;
51298;SDS011;37382;45.192;9.790;2023-05-02T08:33:50;9.65;;;6.47;;
51298;SDS011;37382;45.192;9.790;2023-05-02T08:36:17;8.02;;;5.97;;
51298;SDS011;37382;45.192;9.790;2023-05-02T08:38:45;6.00;;;5.50;;
51298;SDS011;37382;45.192;9.790;2023-05-02T08:41:13;7.30;;;5.70;;
51298;SDS011;37382;45.192;9.790;2023-05-02T08:43:46;6.93;;;6.32;;
51298;SDS011;37382;45.192;9.790;2023-05-02T08:46:15;7.65;;;6.95;;
51298;SDS011;37382;45.192;9.790;2023-05-02T08:48:44;7.30;;;6.60;;
51298;SDS011;37382;45.192;9.790;2023-05-02T08:51:14;7.32;;;6.60;;
51298;SDS011;37382;45.192;9.790;2023-05-02T08:53:43;7.20;;;6.47;;
51298;SDS011;37382;45.192;9.790;2023-05-02T08:56:11;10.07;;;7.18;;
51298;SDS011;37382;45.192;9.790;2023-05-02T08:58:40;8.35;;;7.07;;
51298;SDS011;37382;45.192;9.790;2023-05-02T09:01:12;9.52;;;7.60;;
51298;SDS011;37382;45.192;9.790;2023-05-02T09:03:46;7.88;;;6.38;;
51298;SDS011;37382;45.192;9.790;2023-05-02T09:06:15;7.70;;;6.72;;
51298;SDS011;37382;45.192;9.790;2023-05-02T09:08:45;10.07;;;6.32;;
51298;SDS011;37382;45.192;9.790;2023-05-02T09:11:15;8.40;;;7.35;;
51298;SDS011;37382;45.192;9.790;2023-05-02T09:16:15;7.28;;;6.50;;
51298;SDS011;37382;45.192;9.790;2023-05-02T09:18:44;6.72;;;6.15;;
51298;SDS011;37382;45.192;9.790;2023-05-02T09:21:14;9.18;;;6.38;;
51298;SDS011;37382;45.192;9.790;2023-05-02T09:23:48;6.75;;;6.05;;
51298;SDS011;37382;45.192;9.790;2023-05-02T09:31:21;10.35;;;6.40;;
51298;SDS011;37382;45.192;9.790;2023-05-02T09:34:20;6.35;;;5.75;;
51298;SDS011;37382;45.192;9.790;2023-05-02T09:36:48;6.25;;;5.65;;
51298;SDS011;37382;45.192;9.790;2023-05-02T09:39:23;6.93;;;6.22;;
51298;SDS011;37382;45.192;9.790;2023-05-02T09:41:52;7.00;;;6.10;;
51298;SDS011;37382;45.192;9.790;2023-05-02T09:44:24;6.85;;;6.15;;
51298;SDS011;37382;45.192;9.790;2023-05-02T09:46:54;8.65;;;6.40;;
51298;SDS011;37382;45.192;9.790;2023-05-02T09:52:13;7.13;;;5.57;;
51298;SDS011;37382;45.192;9.790;2023-05-02T09:54:44;8.07;;;5.30;;
51298;SDS011;37382;45.192;9.790;2023-05-02T09:57:17;6.35;;;5.63;;
51298;SDS011;37382;45.192;9.790;2023-05-02T09:59:54;8.40;;;5.10;;
51298;SDS011;37382;45.192;9.790;2023-05-02T10:02:24;5.10;;;4.70;;
51298;SDS011;37382;45.192;9.790;2023-05-02T10:04:52;6.28;;;4.78;;
51298;SDS011;37382;45.192;9.790;2023-05-02T10:07:23;5.07;;;4.47;;
51298;SDS011;37382;45.192;9.790;2023-05-02T10:09:53;4.50;;;4.10;;
51298;SDS011;37382;45.192;9.790;2023-05-02T10:12:25;4.80;;;4.40;;
51298;SDS011;37382;45.192;9.790;2023-05-02T10:14:57;6.35;;;4.50;;
51298;SDS011;37382;45.192;9.790;2023-05-02T10:17:30;6.55;;;3.65;;
51298;SDS011;37382;45.192;9.790;2023-05-02T10:22:26;5.43;;;4.82;;
51298;SDS011;37382;45.192;9.790;2023-05-02T10:24:54;5.93;;;4.97;;
51298;SDS011;37382;45.192;9.790;2023-05-02T10:29:53;9.27;;;4.43;;
51298;SDS011;37382;45.192;9.790;2023-05-02T10:32:23;5.30;;;4.07;;
51298;SDS011;37382;45.192;9.790;2023-05-02T10:34:55;6.15;;;4.63;;
51298;SDS011;37382;45.192;9.790;2023-05-02T10:37:24;4.88;;;4.38;;
51298;SDS011;37382;45.192;9.790;2023-05-02T10:39:53;6.75;;;4.47;;
51298;SDS011;37382;45.192;9.790;2023-05-02T10:42:21;4.00;;;3.65;;
51298;SDS011;37382;45.192;9.790;2023-05-02T10:44:49;6.70;;;3.92;;
51298;SDS011;37382;45.192;9.790;2023-05-02T10:47:17;6.80;;;4.25;;
51298;SDS011;37382;45.192;9.790;2023-05-02T10:49:59;6.03;;;3.93;;
51298;SDS011;37382;45.192;9.790;2023-05-02T10:52:28;8.02;;;3.90;;
51298;SDS011;37382;45.192;9.790;2023-05-02T11:00:27;8.32;;;4.40;;
51298;SDS011;37382;45.192;9.790;2023-05-02T11:02:56;4.40;;;4.00;;
51298;SDS011;37382;45.192;9.790;2023-05-02T11:05:25;4.30;;;3.90;;
51298;SDS011;37382;45.192;9.790;2023-05-02T11:10:43;4.93;;;4.43;;
51298;SDS011;37382;45.192;9.790;2023-05-02T11:13:12;4.80;;;4.40;;
51298;SDS011;37382;45.192;9.790;2023-05-02T11:18:11;6.35;;;4.53;;
51298;SDS011;37382;45.192;9.790;2023-05-02T11:20:42;4.85;;;4.00;;
51298;SDS011;37382;45.192;9.790;2023-05-02T11:23:20;9.73;;;4.28;;
51298;SDS011;37382;45.192;9.790;2023-05-02T11:31:00;4.72;;;4.22;;
51298;SDS011;37382;45.192;9.790;2023-05-02T11:33:28;7.20;;;4.03;;
51298;SDS011;37382;45.192;9.790;2023-05-02T11:35:57;4.95;;;3.90;;
51298;SDS011;37382;45.192;9.790;2023-05-02T11:38:33;6.22;;;4.13;;
51298;SDS011;37382;45.192;9.790;2023-05-02T11:41:03;4.45;;;4.05;;
51298;SDS011;37382;45.192;9.790;2023-05-02T11:43:31;4.68;;;4.00;;
51298;SDS011;37382;45.192;9.790;2023-05-02T11:46:00;4.03;;;3.22;;
51298;SDS011;37382;45.192;9.790;2023-05-02T11:48:29;4.40;;;4.05;;
51298;SDS011;37382;45.192;9.790;2023-05-02T11:50:59;5.43;;;3.78;;
51298;SDS011;37382;45.192;9.790;2023-05-02T11:53:32;4.03;;;3.70;;
51298;SDS011;37382;45.192;9.790;2023-05-02T11:56:09;9.65;;;4.38;;
51298;SDS011;37382;45.192;9.790;2023-05-02T11:58:38;4.85;;;4.35;;
51298;SDS011;37382;45.192;9.790;2023-05-02T12:01:11;4.72;;;4.28;;
51298;SDS011;37382;45.192;9.790;2023-05-02T12:03:42;5.10;;;4.13;;
51298;SDS011;37382;45.192;9.790;2023-05-02T12:06:11;4.43;;;4.03;;
51298;SDS011;37382;45.192;9.790;2023-05-02T12:08:42;5.20;;;4.70;;
51298;SDS011;37382;45.192;9.790;2023-05-02T12:11:14;4.45;;;4.05;;
51298;SDS011;37382;45.192;9.790;2023-05-02T12:13:46;8.45;;;5.03;;
51298;SDS011;37382;45.192;9.790;2023-05-02T12:16:15;4.28;;;3.92;;
51298;SDS011;37382;45.192;9.790;2023-05-02T12:18:45;5.85;;;4.40;;
51298;SDS011;37382;45.192;9.790;2023-05-02T12:21:14;4.38;;;3.97;;
51298;SDS011;37382;45.192;9.790;2023-05-02T12:23:43;4.60;;;3.90;;
51298;SDS011;37382;45.192;9.790;2023-05-02T12:26:22;6.43;;;4.47;;
51298;SDS011;37382;45.192;9.790;2023-05-02T12:28:54;4.78;;;4.38;;
51298;SDS011;37382;45.192;9.790;2023-05-02T12:31:25;5.22;;;4.63;;
51298;SDS011;37382;45.192;9.790;2023-05-02T12:33:55;6.03;;;4.22;;
51298;SDS011;37382;45.192;9.790;2023-05-02T12:36:26;4.40;;;4.00;;
51298;SDS011;37382;45.192;9.790;2023-05-02T12:38:57;9.20;;;4.47;;
51298;SDS011;37382;45.192;9.790;2023-05-02T12:41:36;6.40;;;4.57;;
51298;SDS011;37382;45.192;9.790;2023-05-02T12:44:05;7.05;;;4.55;;
51298;SDS011;37382;45.192;9.790;2023-05-02T12:46:33;8.95;;;4.55;;
51298;SDS011;37382;45.192;9.790;2023-05-02T12:49:06;8.98;;;4.40;;
51298;SDS011;37382;45.192;9.790;2023-05-02T12:51:51;5.00;;;4.60;;
51298;SDS011;37382;45.192;9.790;2023-05-02T12:54:25;5.80;;;5.20;;
51298;SDS011;37382;45.192;9.790;2023-05-02T12:56:53;6.30;;;5.00;;
51298;SDS011;37382;45.192;9.790;2023-05-02T12:59:28;6.25;;;5.45;;
51298;SDS011;37382;45.192;9.790;2023-05-02T13:02:00;5.32;;;4.65;;
51298;SDS011;37382;45.192;9.790;2023-05-02T13:04:34;5.60;;;4.03;;
51298;SDS011;37382;45.192;9.790;2023-05-02T13:07:07;5.63;;;3.60;;
51298;SDS011;37382;45.192;9.790;2023-05-02T13:09:35;5.22;;;4.30;;
51298;SDS011;37382;45.192;9.790;2023-05-02T13:12:04;6.35;;;3.97;;
51298;SDS011;37382;45.192;9.790;2023-05-02T13:14:35;5.22;;;3.25;;
51298;SDS011;37382;45.192;9.790;2023-05-02T13:17:03;6.30;;;3.63;;
51298;SDS011;37382;45.192;9.790;2023-05-02T13:19:30;4.03;;;2.72;;
51298;SDS011;37382;45.192;9.790;2023-05-02T13:21:58;3.28;;;2.60;;
51298;SDS011;37382;45.192;9.790;2023-05-02T13:24:26;4.47;;;2.42;;
51298;SDS011;37382;45.192;9.790;2023-05-02T13:26:55;2.20;;;2.00;;
51298;SDS011;37382;45.192;9.790;2023-05-02T13:29:22;7.22;;;2.08;;
51298;SDS011;37382;45.192;9.790;2023-05-02T13:31:51;2.97;;;1.90;;
51298;SDS011;37382;45.192;9.790;2023-05-02T13:34:20;4.88;;;2.33;;
51298;SDS011;37382;45.192;9.790;2023-05-02T13:36:49;2.22;;;1.98;;
51298;SDS011;37382;45.192;9.790;2023-05-02T13:39:20;2.78;;;2.20;;
51298;SDS011;37382;45.192;9.790;2023-05-02T13:41:50;2.33;;;1.88;;
51298;SDS011;37382;45.192;9.790;2023-05-02T13:44:18;1.60;;;1.50;;
51298;SDS011;37382;45.192;9.790;2023-05-02T13:46:47;2.67;;;1.63;;
51298;SDS011;37382;45.192;9.790;2023-05-02T13:49:14;2.20;;;1.48;;
51298;SDS011;37382;45.192;9.790;2023-05-02T13:51:42;2.47;;;1.23;;
51298;SDS011;37382;45.192;9.790;2023-05-02T13:54:09;2.42;;;1.45;;
51298;SDS011;37382;45.192;9.790;2023-05-02T13:56:37;1.52;;;1.17;;
51298;SDS011;37382;45.192;9.790;2023-05-02T13:59:05;1.63;;;1.38;;
51298;SDS011;37382;45.192;9.790;2023-05-02T14:01:35;1.33;;;1.05;;
51298;SDS011;37382;45.192;9.790;2023-05-02T14:04:06;1.40;;;1.30;;
51298;SDS011;37382;45.192;9.790;2023-05-02T14:06:35;1.30;;;1.20;;
51298;SDS011;37382;45.192;9.790;2023-05-02T14:09:03;1.35;;;1.25;;
51298;SDS011;37382;45.192;9.790;2023-05-02T14:11:31;4.97;;;1.40;;
51298;SDS011;37382;45.192;9.790;2023-05-02T14:13:58;1.52;;;1.30;;
51298;SDS011;37382;45.192;9.790;2023-05-02T14:16:26;4.25;;;1.40;;
51298;SDS011;37382;45.192;9.790;2023-05-02T14:18:54;3.65;;;1.23;;
51298;SDS011;37382;45.192;9.790;2023-05-02T14:21:22;1.30;;;0.95;;
51298;SDS011;37382;45.192;9.790;2023-05-02T14:23:50;4.82;;;1.08;;
51298;SDS011;37382;45.192;9.790;2023-05-02T14:26:17;1.30;;;1.20;;
51298;SDS011;37382;45.192;9.790;2023-05-02T14:28:46;1.40;;;1.30;;
51298;SDS011;37382;45.192;9.790;2023-05-02T14:31:14;6.32;;;1.55;;
51298;SDS011;37382;45.192;9.790;2023-05-02T14:33:42;1.30;;;1.20;;
51298;SDS011;37382;45.192;9.790;2023-05-02T14:36:09;1.27;;;1.17;;
51298;SDS011;37382;45.192;9.790;2023-05-02T14:38:38;1.90;;;1.00;;
51298;SDS011;37382;45.192;9.790;2023-05-02T14:41:05;3.00;;;1.10;;
51298;SDS011;37382;45.192;9.790;2023-05-02T14:43:33;3.13;;;1.17;;
51298;SDS011;37382;45.192;9.790;2023-05-02T14:46:01;1.48;;;1.00;;
51298;SDS011;37382;45.192;9.790;2023-05-02T14:48:28;4.07;;;1.10;;
51298;SDS011;37382;45.192;9.790;2023-05-02T14:50:56;4.35;;;1.42;;
51298;SDS011;37382;45.192;9.790;2023-05-02T14:53:26;2.90;;;1.20;;
51298;SDS011;37382;45.192;9.790;2023-05-02T14:55:53;0.80;;;0.70;;
51298;SDS011;37382;45.192;9.790;2023-05-02T14:58:21;2.42;;;0.90;;
51298;SDS011;37382;45.192;9.790;2023-05-02T15:00:48;5.75;;;1.00;;
51298;SDS011;37382;45.192;9.790;2023-05-02T15:03:16;1.48;;;1.10;;
51298;SDS011;37382;45.192;9.790;2023-05-02T15:05:44;1.27;;;1.00;;
51298;SDS011;37382;45.192;9.790;2023-05-02T15:08:12;5.03;;;1.10;;
51298;SDS011;37382;45.192;9.790;2023-05-02T15:10:39;3.63;;;0.90;;
51298;SDS011;37382;45.192;9.790;2023-05-02T15:13:07;1.50;;;1.00;;
51298;SDS011;37382;45.192;9.790;2023-05-02T15:15:35;1.40;;;0.95;;
51298;SDS011;37382;45.192;9.790;2023-05-02T15:18:03;1.10;;;1.00;;
51298;SDS011;37382;45.192;9.790;2023-05-02T15:20:31;1.85;;;1.10;;
51298;SDS011;37382;45.192;9.790;2023-05-02T15:22:58;5.35;;;1.27;;
51298;SDS011;37382;45.192;9.790;2023-05-02T15:25:29;2.25;;;0.82;;
51298;SDS011;37382;45.192;9.790;2023-05-02T15:27:57;1.20;;;1.08;;
51298;SDS011;37382;45.192;9.790;2023-05-02T15:30:25;1.20;;;1.10;;
51298;SDS011;37382;45.192;9.790;2023-05-02T15:32:52;2.00;;;1.50;;
51298;SDS011;37382;45.192;9.790;2023-05-02T15:35:21;1.35;;;1.10;;
51298;SDS011;37382;45.192;9.790;2023-05-02T15:37:48;1.20;;;1.10;;
51298;SDS011;37382;45.192;9.790;2023-05-02T15:40:16;6.55;;;1.10;;
51298;SDS011;37382;45.192;9.790;2023-05-02T15:42:43;3.45;;;1.38;;
51298;SDS011;37382;45.192;9.790;2023-05-02T15:45:11;3.85;;;1.30;;
51298;SDS011;37382;45.192;9.790;2023-05-02T15:47:39;1.63;;;1.30;;
51298;SDS011;37382;45.192;9.790;2023-05-02T15:50:08;3.10;;;1.70;;
51298;SDS011;37382;45.192;9.790;2023-05-02T15:52:36;2.92;;;1.60;;
51298;SDS011;37382;45.192;9.790;2023-05-02T15:55:04;2.03;;;1.27;;
51298;SDS011;37382;45.192;9.790;2023-05-02T15:57:32;2.45;;;1.33;;
51298;SDS011;37382;45.192;9.790;2023-05-02T16:00:00;1.40;;;1.08;;
51298;SDS011;37382;45.192;9.790;2023-05-02T16:02:30;3.35;;;1.15;;
51298;SDS011;37382;45.192;9.790;2023-05-02T16:05:00;2.72;;;1.23;;
51298;SDS011;37382;45.192;9.790;2023-05-02T16:07:27;1.20;;;1.10;;
51298;SDS011;37382;45.192;9.790;2023-05-02T16:09:55;1.40;;;0.90;;
51298;SDS011;37382;45.192;9.790;2023-05-02T16:12:22;4.22;;;0.95;;
51298;SDS011;37382;45.192;9.790;2023-05-02T16:14:50;3.13;;;1.00;;
51298;SDS011;37382;45.192;9.790;2023-05-02T16:17:17;3.22;;;1.40;;
51298;SDS011;37382;45.192;9.790;2023-05-02T16:19:47;1.45;;;1.15;;
51298;SDS011;37382;45.192;9.790;2023-05-02T16:22:14;1.20;;;1.10;;
51298;SDS011;37382;45.192;9.790;2023-05-02T16:24:41;6.45;;;1.20;;
51298;SDS011;37382;45.192;9.790;2023-05-02T16:27:09;1.48;;;1.10;;
51298;SDS011;37382;45.192;9.790;2023-05-02T16:29:37;1.02;;;1.00;;
51298;SDS011;37382;45.192;9.790;2023-05-02T16:32:05;1.23;;;1.05;;
51298;SDS011;37382;45.192;9.790;2023-05-02T16:34:34;1.50;;;1.30;;
51298;SDS011;37382;45.192;9.790;2023-05-02T16:37:03;2.13;;;1.40;;
51298;SDS011;37382;45.192;9.790;2023-05-02T16:39:31;1.80;;;1.15;;
51298;SDS011;37382;45.192;9.790;2023-05-02T16:41:59;3.03;;;1.23;;
51298;SDS011;37382;45.192;9.790;2023-05-02T16:44:28;1.88;;;1.00;;
51298;SDS011;37382;45.192;9.790;2023-05-02T16:46:56;1.88;;;1.00;;
51298;SDS011;37382;45.192;9.790;2023-05-02T16:49:24;2.63;;;1.17;;
51298;SDS011;37382;45.192;9.790;2023-05-02T16:51:52;4.00;;;1.00;;
51298;SDS011;37382;45.192;9.790;2023-05-02T16:54:20;2.97;;;1.27;;
51298;SDS011;37382;45.192;9.790;2023-05-02T16:56:49;2.03;;;1.00;;
51298;SDS011;37382;45.192;9.790;2023-05-02T16:59:16;1.77;;;1.00;;
51298;SDS011;37382;45.192;9.790;2023-05-02T17:01:43;2.30;;;0.80;;
51298;SDS011;37382;45.192;9.790;2023-05-02T17:04:11;10.45;;;1.00;;
51298;SDS011;37382;45.192;9.790;2023-05-02T17:06:39;1.77;;;1.02;;
51298;SDS011;37382;45.192;9.790;2023-05-02T17:09:06;1.27;;;0.93;;
51298;SDS011;37382;45.192;9.790;2023-05-02T17:11:33;1.10;;;1.00;;
51298;SDS011;37382;45.192;9.790;2023-05-02T17:14:01;2.80;;;1.20;;
51298;SDS011;37382;45.192;9.790;2023-05-02T17:16:29;1.20;;;1.10;;
51298;SDS011;37382;45.192;9.790;2023-05-02T17:18:56;2.10;;;1.42;;
51298;SDS011;37382;45.192;9.790;2023-05-02T17:21:24;2.17;;;1.33;;
51298;SDS011;37382;45.192;9.790;2023-05-02T17:23:52;1.60;;;1.50;;
51298;SDS011;37382;45.192;9.790;2023-05-02T17:26:20;1.48;;;1.38;;
51298;SDS011;37382;45.192;9.790;2023-05-02T17:28:48;1.50;;;1.40;;
51298;SDS011;37382;45.192;9.790;2023-05-02T17:31:19;4.93;;;1.90;;
51298;SDS011;37382;45.192;9.790;2023-05-02T17:33:47;1.55;;;1.23;;
51298;SDS011;37382;45.192;9.790;2023-05-02T17:36:15;1.83;;;1.42;;
51298;SDS011;37382;45.192;9.790;2023-05-02T17:38:43;4.60;;;1.48;;
51298;SDS011;37382;45.192;9.790;2023-05-02T17:41:11;1.55;;;1.45;;
51298;SDS011;37382;45.192;9.790;2023-05-02T17:43:38;3.83;;;1.60;;
51298;SDS011;37382;45.192;9.790;2023-05-02T17:46:08;1.67;;;1.58;;
51298;SDS011;37382;45.192;9.790;2023-05-02T17:48:36;2.00;;;1.75;;
51298;SDS011;37382;45.192;9.790;2023-05-02T17:51:04;1.60;;;1.50;;
51298;SDS011;37382;45.192;9.790;2023-05-02T17:53:33;2.25;;;1.50;;
51298;SDS011;37382;45.192;9.790;2023-05-02T17:56:03;4.22;;;1.73;;
51298;SDS011;37382;45.192;9.790;2023-05-02T17:58:31;1.50;;;1.40;;
51298;SDS011;37382;45.192;9.790;2023-05-02T18:01:07;2.05;;;1.35;;
51298;SDS011;37382;45.192;9.790;2023-05-02T18:03:35;2.45;;;1.30;;
51298;SDS011;37382;45.192;9.790;2023-05-02T18:06:03;2.20;;;1.45;;
51298;SDS011;37382;45.192;9.790;2023-05-02T18:08:31;3.58;;;1.38;;
51298;SDS011;37382;45.192;9.790;2023-05-02T18:10:59;2.13;;;1.60;;
51298;SDS011;37382;45.192;9.790;2023-05-02T18:13:26;1.25;;;1.17;;
51298;SDS011;37382;45.192;9.790;2023-05-02T18:15:57;3.20;;;1.30;;
51298;SDS011;37382;45.192;9.790;2023-05-02T18:18:27;1.30;;;1.13;;
51298;SDS011;37382;45.192;9.790;2023-05-02T18:20:55;2.30;;;1.45;;
51298;SDS011;37382;45.192;9.790;2023-05-02T18:23:22;1.73;;;1.55;;
51298;SDS011;37382;45.192;9.790;2023-05-02T18:25:50;1.65;;;1.40;;
51298;SDS011;37382;45.192;9.790;2023-05-02T18:28:18;2.38;;;1.70;;
51298;SDS011;37382;45.192;9.790;2023-05-02T18:30:46;2.30;;;1.70;;
51298;SDS011;37382;45.192;9.790;2023-05-02T18:33:13;1.60;;;1.50;;
51298;SDS011;37382;45.192;9.790;2023-05-02T18:35:44;4.50;;;1.60;;
51298;SDS011;37382;45.192;9.790;2023-05-02T18:38:15;1.50;;;1.40;;
51298;SDS011;37382;45.192;9.790;2023-05-02T18:40:43;2.95;;;1.58;;
51298;SDS011;37382;45.192;9.790;2023-05-02T18:43:10;3.53;;;1.38;;
51298;SDS011;37382;45.192;9.790;2023-05-02T18:45:38;1.90;;;1.70;;
51298;SDS011;37382;45.192;9.790;2023-05-02T18:48:06;1.70;;;1.60;;
51298;SDS011;37382;45.192;9.790;2023-05-02T18:50:34;2.35;;;1.98;;
51298;SDS011;37382;45.192;9.790;2023-05-02T18:53:01;3.10;;;1.92;;
51298;SDS011;37382;45.192;9.790;2023-05-02T18:55:30;5.93;;;2.20;;
51298;SDS011;37382;45.192;9.790;2023-05-02T18:57:59;2.55;;;2.35;;
51298;SDS011;37382;45.192;9.790;2023-05-02T19:00:26;3.22;;;1.92;;
51298;SDS011;37382;45.192;9.790;2023-05-02T19:02:57;2.85;;;2.28;;
51298;SDS011;37382;45.192;9.790;2023-05-02T19:05:25;3.40;;;2.53;;
51298;SDS011;37382;45.192;9.790;2023-05-02T19:07:53;6.25;;;2.75;;
51298;SDS011;37382;45.192;9.790;2023-05-02T19:10:22;2.60;;;2.40;;
51298;SDS011;37382;45.192;9.790;2023-05-02T19:12:50;3.58;;;2.92;;
51298;SDS011;37382;45.192;9.790;2023-05-02T19:15:17;2.95;;;2.58;;
51298;SDS011;37382;45.192;9.790;2023-05-02T19:17:45;3.83;;;2.50;;
51298;SDS011;37382;45.192;9.790;2023-05-02T19:20:13;2.55;;;2.35;;
51298;SDS011;37382;45.192;9.790;2023-05-02T19:22:41;5.10;;;2.63;;
51298;SDS011;37382;45.192;9.790;2023-05-02T19:25:10;3.53;;;2.75;;
51298;SDS011;37382;45.192;9.790;2023-05-02T19:27:41;3.75;;;3.05;;
51298;SDS011;37382;45.192;9.790;2023-05-02T19:30:13;2.70;;;2.47;;
51298;SDS011;37382;45.192;9.790;2023-05-02T19:32:42;9.57;;;2.50;;
51298;SDS011;37382;45.192;9.790;2023-05-02T19:35:09;3.42;;;2.30;;
51298;SDS011;37382;45.192;9.790;2023-05-02T19:37:37;2.33;;;2.13;;